Time;durP1;ratioP1;P1;durP2;ratioP2;P2;SDS_P1;SDS_P2;PMS_P1;PMS_P2;Temp;Humidity;BMP_temperature;BMP_pressure;BME280_temperature;BME280_humidity;BME280_pressure;Samples;Min_cycle;Max_cycle;Signal;HPM_P1;HPM_P2
2023/01/10 00:02:02;;;;;;;65.00;49.05;;;13.90;73.00;;;;;;4905136;28;96295;-49
2023/01/10 00:04:28;;;;;;;65.90;49.47;;;13.90;73.00;;;;;;4900173;28;95524;-47
2023/01/10 00:06:54;;;;;;;64.53;49.13;;;13.90;72.90;;;;;;4914580;28;95374;-50
2023/01/10 00:09:20;;;;;;;69.97;49.35;;;14.00;73.00;;;;;;4905330;28;99663;-47
2023/01/10 00:14:33;;;;;;;66.82;48.97;;;13.90;72.90;;;;;;4905411;28;94837;-49
2023/01/10 00:17:03;;;;;;;63.90;49.25;;;14.00;73.10;;;;;;4910506;28;95124;-51
2023/01/10 00:19:28;;;;;;;64.75;49.10;;;13.90;72.90;;;;;;4904551;28;96216;-47
2023/01/10 00:21:56;;;;;;;64.68;49.17;;;13.90;72.90;;;;;;4903877;28;95644;-49
2023/01/10 00:24:22;;;;;;;65.10;49.47;;;13.90;72.70;;;;;;4906991;28;95319;-49
2023/01/10 00:26:50;;;;;;;66.65;49.45;;;13.90;72.70;;;;;;4920391;28;96289;-48
2023/01/10 00:29:20;;;;;;;64.15;49.17;;;13.90;72.80;;;;;;4924558;28;95216;-52
2023/01/10 00:31:46;;;;;;;64.93;49.30;;;13.90;72.70;;;;;;4919766;28;96820;-50
2023/01/10 00:34:13;;;;;;;63.67;48.85;;;13.90;72.70;;;;;;4926813;28;94904;-51
2023/01/10 00:36:38;;;;;;;65.85;48.95;;;13.90;72.60;;;;;;4932619;28;95126;-49
2023/01/10 00:39:04;;;;;;;66.13;49.08;;;14.00;72.90;;;;;;4927954;28;96237;-48
2023/01/10 00:44:14;;;;;;;62.50;49.08;;;13.90;72.60;;;;;;4923141;28;94202;-51
2023/01/10 00:46:40;;;;;;;65.00;48.72;;;13.90;72.60;;;;;;4931173;28;95937;-45
2023/01/10 00:49:07;;;;;;;66.75;48.85;;;13.90;72.70;;;;;;4915303;28;94961;-48
2023/01/10 00:51:33;;;;;;;65.53;48.67;;;13.90;72.60;;;;;;4919652;28;95734;-50
2023/01/10 00:53:59;;;;;;;65.95;49.42;;;13.90;72.60;;;;;;4924511;28;95465;-46
2023/01/10 00:56:24;;;;;;;65.38;49.15;;;13.90;72.50;;;;;;4928495;28;97433;-45
2023/01/10 00:58:50;;;;;;;64.13;48.55;;;13.90;72.60;;;;;;4922509;28;94923;-49
2023/01/10 01:01:16;;;;;;;62.65;49.00;;;13.90;72.50;;;;;;4924780;28;95718;-45
2023/01/10 01:03:41;;;;;;;67.15;49.22;;;13.90;73.20;;;;;;4919769;28;96213;-45
2023/01/10 01:06:07;;;;;;;65.82;49.38;;;13.90;72.60;;;;;;4921029;28;94971;-48
2023/01/10 01:08:33;;;;;;;66.53;49.20;;;13.90;72.50;;;;;;4921013;28;95835;-48
2023/01/10 01:10:59;;;;;;;66.90;49.45;;;13.90;72.60;;;;;;4928807;28;96203;-49
2023/01/10 01:13:25;;;;;;;64.40;49.30;;;13.90;72.50;;;;;;4924494;28;94940;-50
2023/01/10 01:15:51;;;;;;;65.20;49.03;;;13.80;72.40;;;;;;4919101;28;96279;-48
2023/01/10 01:18:19;;;;;;;63.85;48.42;;;13.80;72.60;;;;;;4921600;28;96439;-49
2023/01/10 01:20:47;;;;;;;64.75;48.92;;;13.80;72.50;;;;;;4921951;28;95397;-47
2023/01/10 01:23:14;;;;;;;65.70;49.38;;;13.80;72.60;;;;;;4932953;28;97021;-52
2023/01/10 01:25:40;;;;;;;65.07;49.05;;;13.90;72.50;;;;;;4920131;28;95928;-48
2023/01/10 01:28:06;;;;;;;64.25;48.85;;;13.80;72.40;;;;;;4917103;28;99825;-49
2023/01/10 01:30:32;;;;;;;64.65;49.25;;;13.80;72.50;;;;;;4923051;28;94949;-50
2023/01/10 01:32:58;;;;;;;64.60;48.83;;;13.80;72.60;;;;;;4920971;28;96945;-47
2023/01/10 01:35:24;;;;;;;64.10;48.55;;;13.80;72.50;;;;;;4935875;28;95262;-47
2023/01/10 01:37:50;;;;;;;64.18;48.95;;;13.80;72.50;;;;;;4914362;28;98401;-49
2023/01/10 01:40:18;;;;;;;64.78;48.92;;;13.80;72.50;;;;;;4926279;28;100050;-45
2023/01/10 01:42:44;;;;;;;64.97;48.90;;;13.80;72.60;;;;;;4923229;28;97533;-50
2023/01/10 01:45:13;;;;;;;64.15;49.05;;;13.80;72.50;;;;;;4922614;28;94653;-48
2023/01/10 01:47:47;;;;;;;67.50;49.35;;;13.80;72.50;;;;;;4920672;28;102128;-47
2023/01/10 01:50:38;;;;;;;63.97;48.67;;;13.80;72.50;;;;;;4918479;28;96570;-49
2023/01/10 01:53:12;;;;;;;66.03;49.25;;;13.80;72.50;;;;;;4929864;28;96847;-49
2023/01/10 01:55:38;;;;;;;65.55;49.33;;;13.70;72.50;;;;;;4922565;28;96941;-51
2023/01/10 01:58:11;;;;;;;66.05;48.78;;;13.70;72.50;;;;;;4917937;28;97030;-49
2023/01/10 02:00:37;;;;;;;64.47;49.08;;;13.80;72.50;;;;;;4920822;28;95374;-48
2023/01/10 02:03:04;;;;;;;66.45;49.45;;;13.80;72.50;;;;;;4925766;28;95534;-49
2023/01/10 02:05:33;;;;;;;65.50;49.08;;;13.70;72.60;;;;;;4920918;28;96848;-49
2023/01/10 02:08:01;;;;;;;65.32;48.53;;;13.80;72.70;;;;;;4922463;28;96527;-49
2023/01/10 02:10:47;;;;;;;67.25;49.67;;;13.70;72.60;;;;;;4928636;28;95982;-48
2023/01/10 02:13:16;;;;;;;67.28;49.22;;;13.70;72.60;;;;;;4922590;28;95064;-48
2023/01/10 02:15:42;;;;;;;65.70;49.08;;;13.70;72.50;;;;;;4926116;28;95899;-49
2023/01/10 02:18:08;;;;;;;67.05;49.17;;;13.70;72.50;;;;;;4918805;28;97066;-47
2023/01/10 02:21:02;;;;;;;62.33;48.58;;;13.70;72.50;;;;;;4927479;28;95367;-48
2023/01/10 02:23:46;;;;;;;66.68;49.45;;;13.70;72.60;;;;;;4921264;28;99475;-45
2023/01/10 02:26:34;;;;;;;65.13;48.95;;;13.70;72.60;;;;;;4922048;28;95213;-50
2023/01/10 02:29:40;;;;;;;67.13;49.25;;;13.70;72.70;;;;;;4915740;28;95049;-49
2023/01/10 02:32:38;;;;;;;63.90;48.92;;;13.60;72.70;;;;;;4931034;28;96560;-46
2023/01/10 02:35:32;;;;;;;66.28;48.67;;;13.60;72.60;;;;;;4914313;28;96845;-52
2023/01/10 02:38:42;;;;;;;67.50;49.42;;;13.70;72.60;;;;;;4918327;28;95423;-48
2023/01/10 02:41:37;;;;;;;67.38;49.00;;;13.70;72.60;;;;;;4921522;28;95371;-51
2023/01/10 02:44:26;;;;;;;68.47;49.35;;;13.70;72.60;;;;;;4921234;28;95334;-52
2023/01/10 02:46:52;;;;;;;64.80;48.95;;;13.60;72.50;;;;;;4923220;28;95079;-49
2023/01/10 02:49:18;;;;;;;63.33;49.33;;;13.60;72.50;;;;;;4918404;28;96380;-46
2023/01/10 02:51:44;;;;;;;67.45;48.67;;;13.60;72.50;;;;;;4920089;28;96581;-47
2023/01/10 02:54:17;;;;;;;70.35;49.50;;;13.60;72.60;;;;;;4922508;28;97937;-48
2023/01/10 02:57:21;;;;;;;64.68;49.63;;;13.60;72.70;;;;;;4927071;28;94743;-51
2023/01/10 03:00:14;;;;;;;65.05;49.30;;;13.60;72.60;;;;;;4919103;28;96922;-51
2023/01/10 03:03:16;;;;;;;64.68;48.53;;;13.60;72.60;;;;;;4911263;28;95882;-50
2023/01/10 03:06:07;;;;;;;63.92;48.47;;;13.60;72.60;;;;;;4917192;28;97565;-49
2023/01/10 03:08:35;;;;;;;63.72;48.67;;;13.60;72.40;;;;;;4921142;28;100011;-49
2023/01/10 03:11:06;;;;;;;67.65;49.17;;;13.60;72.40;;;;;;4924008;28;94802;-50
2023/01/10 03:13:52;;;;;;;64.13;49.35;;;13.60;72.40;;;;;;4914115;28;95457;-48
2023/01/10 03:16:26;;;;;;;66.82;49.03;;;13.60;72.60;;;;;;4933469;28;95041;-47
2023/01/10 03:19:02;;;;;;;64.65;48.70;;;13.50;73.10;;;;;;4920264;28;95076;-49
2023/01/10 03:21:30;;;;;;;64.60;48.97;;;13.50;72.50;;;;;;4916148;28;97015;-49
2023/01/10 03:24:00;;;;;;;64.53;49.38;;;13.50;72.50;;;;;;4915798;28;97792;-50
2023/01/10 03:26:45;;;;;;;63.87;48.97;;;13.50;72.40;;;;;;4917803;28;96284;-49
2023/01/10 03:29:16;;;;;;;64.05;49.35;;;13.50;72.50;;;;;;4923766;28;97688;-50
2023/01/10 03:31:54;;;;;;;67.25;49.30;;;13.50;72.70;;;;;;4919440;28;95471;-47
2023/01/10 03:34:21;;;;;;;63.63;48.60;;;13.50;72.60;;;;;;4923843;28;94789;-50
2023/01/10 03:37:12;;;;;;;64.13;49.22;;;13.50;72.50;;;;;;4921064;28;95158;-53
2023/01/10 03:40:06;;;;;;;64.43;49.40;;;13.40;72.50;;;;;;4915292;28;95807;-52
2023/01/10 03:45:54;;;;;;;63.75;48.55;;;13.50;72.50;;;;;;4924955;28;95218;-50
2023/01/10 03:48:22;;;;;;;66.70;49.08;;;13.50;72.50;;;;;;4920176;28;96742;-53
2023/01/10 03:50:50;;;;;;;64.90;48.97;;;13.50;72.50;;;;;;4915629;28;96081;-47
2023/01/10 03:53:16;;;;;;;65.13;48.50;;;13.50;72.50;;;;;;4924731;28;96997;-49
2023/01/10 03:55:44;;;;;;;67.53;48.85;;;13.40;72.50;;;;;;4923630;28;95102;-52
2023/01/10 03:58:09;;;;;;;64.43;48.80;;;13.40;72.60;;;;;;4923874;28;95077;-52
2023/01/10 04:00:35;;;;;;;64.70;49.13;;;13.40;72.50;;;;;;4924693;28;97364;-49
2023/01/10 04:03:01;;;;;;;66.68;49.13;;;13.40;72.50;;;;;;4920681;28;95140;-50
2023/01/10 04:05:26;;;;;;;63.95;48.83;;;13.40;72.60;;;;;;4920373;28;94771;-52
2023/01/10 04:07:52;;;;;;;66.57;49.33;;;13.40;72.50;;;;;;4926508;28;94964;-47
2023/01/10 04:10:18;;;;;;;64.78;49.28;;;13.40;72.30;;;;;;4927895;28;94014;-50
2023/01/10 04:12:43;;;;;;;64.18;48.88;;;13.40;72.60;;;;;;4924958;28;96895;-49
2023/01/10 04:15:09;;;;;;;65.50;48.92;;;13.40;72.40;;;;;;4917228;28;95315;-47
2023/01/10 04:17:35;;;;;;;65.55;49.30;;;13.40;72.60;;;;;;4925694;28;99113;-49
2023/01/10 04:20:00;;;;;;;66.97;48.60;;;13.40;72.50;;;;;;4921390;28;98538;-46
2023/01/10 04:22:27;;;;;;;64.18;48.85;;;13.30;72.60;;;;;;4922708;28;95234;-52
2023/01/10 04:24:53;;;;;;;64.78;48.78;;;13.30;72.60;;;;;;4922714;28;96017;-47
2023/01/10 04:27:19;;;;;;;65.68;49.03;;;13.40;72.70;;;;;;4924484;28;95247;-51
2023/01/10 04:29:45;;;;;;;65.35;48.85;;;13.30;72.50;;;;;;4925649;28;96068;-52
2023/01/10 04:32:10;;;;;;;67.85;49.90;;;13.30;72.60;;;;;;4917148;28;96407;-50
2023/01/10 04:34:36;;;;;;;63.65;48.80;;;13.30;72.40;;;;;;4925570;28;94672;-49
2023/01/10 04:37:02;;;;;;;70.07;48.92;;;13.30;72.50;;;;;;4921265;28;96904;-52
2023/01/10 04:39:27;;;;;;;68.90;49.47;;;13.30;72.50;;;;;;4915229;28;95525;-48
2023/01/10 04:41:53;;;;;;;69.55;50.13;;;13.30;72.40;;;;;;4918996;28;98747;-47
2023/01/10 04:44:18;;;;;;;64.88;48.95;;;13.30;72.30;;;;;;4923581;28;97199;-50
2023/01/10 04:46:44;;;;;;;64.63;48.42;;;13.30;72.40;;;;;;4925032;28;94825;-48
2023/01/10 04:49:10;;;;;;;65.88;48.83;;;13.30;72.50;;;;;;4918572;28;95515;-52
2023/01/10 04:51:36;;;;;;;64.00;49.17;;;13.30;72.40;;;;;;4922408;28;95274;-46
2023/01/10 04:54:01;;;;;;;70.93;49.63;;;13.30;72.30;;;;;;4921872;28;95829;-52
2023/01/10 04:56:27;;;;;;;69.00;49.17;;;13.30;73.00;;;;;;4922218;28;98545;-48
2023/01/10 04:58:53;;;;;;;65.28;48.88;;;13.20;72.40;;;;;;4923759;28;95189;-49
2023/01/10 05:01:21;;;;;;;66.97;49.13;;;13.20;72.70;;;;;;4921563;28;95455;-51
2023/01/10 05:03:48;;;;;;;66.38;49.15;;;13.20;72.40;;;;;;4918941;28;94869;-50
2023/01/10 05:06:14;;;;;;;63.15;48.80;;;13.30;72.30;;;;;;4915231;28;98023;-47
2023/01/10 05:08:40;;;;;;;68.15;48.83;;;13.20;72.50;;;;;;4930221;28;95254;-50
2023/01/10 05:11:06;;;;;;;65.93;49.35;;;13.30;72.40;;;;;;4925629;28;97320;-50
2023/01/10 05:13:32;;;;;;;66.22;48.83;;;13.30;72.50;;;;;;4917795;28;95185;-50
2023/01/10 05:15:58;;;;;;;63.53;48.88;;;13.30;72.30;;;;;;4911819;28;96188;-51
2023/01/10 05:18:25;;;;;;;70.97;49.58;;;13.30;72.40;;;;;;4921145;28;95732;-49
2023/01/10 05:20:51;;;;;;;68.70;49.28;;;13.30;72.30;;;;;;4927834;28;95198;-49
2023/01/10 05:23:17;;;;;;;67.80;48.92;;;13.30;72.30;;;;;;4922821;28;96926;-49
2023/01/10 05:25:42;;;;;;;63.45;48.90;;;13.30;72.30;;;;;;4915979;28;95109;-50
2023/01/10 05:28:08;;;;;;;66.03;49.33;;;13.20;72.40;;;;;;4920368;28;94903;-47
2023/01/10 05:30:34;;;;;;;68.43;49.75;;;13.20;72.50;;;;;;4905406;28;97293;-49
2023/01/10 05:33:02;;;;;;;65.28;48.92;;;13.20;72.50;;;;;;4915971;28;96444;-50
2023/01/10 05:35:28;;;;;;;63.60;49.38;;;13.20;72.50;;;;;;4924686;28;95652;-51
2023/01/10 05:37:54;;;;;;;64.97;48.80;;;13.20;72.70;;;;;;4925902;28;97336;-48
2023/01/10 05:40:19;;;;;;;63.75;48.80;;;13.20;72.70;;;;;;4914254;28;95079;-50
2023/01/10 05:42:45;;;;;;;65.82;49.47;;;13.20;72.70;;;;;;4922368;28;96567;-49
2023/01/10 05:45:11;;;;;;;67.03;49.45;;;13.20;72.60;;;;;;4929775;28;95047;-50
2023/01/10 05:47:36;;;;;;;69.18;49.03;;;13.20;72.30;;;;;;4914204;28;95502;-48
2023/01/10 05:50:02;;;;;;;68.75;49.63;;;13.30;72.40;;;;;;4913149;28;94972;-50
2023/01/10 05:52:28;;;;;;;66.00;49.08;;;13.30;72.20;;;;;;4926215;28;95931;-52
2023/01/10 05:54:53;;;;;;;67.47;49.05;;;13.30;72.90;;;;;;4916709;28;97389;-48
2023/01/10 05:57:20;;;;;;;64.25;49.35;;;13.30;72.80;;;;;;4898611;28;95479;-49
2023/01/10 05:59:46;;;;;;;64.72;49.00;;;13.30;72.00;;;;;;4919067;28;96955;-49
2023/01/10 06:02:12;;;;;;;73.20;50.42;;;13.30;72.40;;;;;;4921914;28;94941;-47
2023/01/10 06:04:38;;;;;;;66.03;49.03;;;13.30;72.60;;;;;;4935029;28;94929;-48
2023/01/10 06:07:03;;;;;;;67.90;49.25;;;13.30;72.20;;;;;;4906116;28;95764;-47
2023/01/10 06:09:29;;;;;;;67.65;49.03;;;13.30;72.10;;;;;;4919367;28;96102;-48
2023/01/10 06:11:55;;;;;;;67.05;48.97;;;13.20;73.10;;;;;;4915377;28;96105;-49
2023/01/10 06:14:21;;;;;;;68.97;49.88;;;13.20;72.90;;;;;;4911325;28;97090;-44
2023/01/10 06:16:47;;;;;;;68.95;49.33;;;13.20;72.90;;;;;;4936309;28;94996;-47
2023/01/10 06:19:12;;;;;;;67.68;49.25;;;13.20;72.80;;;;;;4926053;28;96173;-47
2023/01/10 06:21:39;;;;;;;69.35;50.08;;;13.20;72.90;;;;;;4903158;28;98088;-47
2023/01/10 06:24:04;;;;;;;71.00;49.45;;;13.20;72.90;;;;;;4907551;28;97834;-46
2023/01/10 06:26:30;;;;;;;68.20;49.00;;;13.20;73.30;;;;;;4914353;28;95583;-45
2023/01/10 06:28:58;;;;;;;65.00;49.00;;;13.20;74.40;;;;;;4925293;28;95824;-47
2023/01/10 06:31:24;;;;;;;66.20;49.28;;;13.20;73.80;;;;;;4904587;28;95978;-49
2023/01/10 06:33:50;;;;;;;65.13;49.38;;;13.10;73.50;;;;;;4919567;28;96546;-47
2023/01/10 06:36:16;;;;;;;64.10;49.38;;;13.10;73.50;;;;;;4930632;28;94380;-51
2023/01/10 06:38:42;;;;;;;66.70;49.50;;;13.20;73.30;;;;;;4904334;28;95346;-48
2023/01/10 06:41:13;;;;;;;65.50;49.08;;;13.20;73.50;;;;;;4912706;28;94829;-46
2023/01/10 06:43:46;;;;;;;67.47;49.42;;;13.20;73.20;;;;;;4906027;28;101676;-49
2023/01/10 06:46:15;;;;;;;67.47;49.05;;;13.20;72.90;;;;;;4918164;28;96066;-48
2023/01/10 06:48:42;;;;;;;68.00;49.40;;;13.20;73.10;;;;;;4924175;28;95802;-46
2023/01/10 06:51:08;;;;;;;68.57;49.10;;;13.10;73.40;;;;;;4911121;28;96418;-50
2023/01/10 06:53:34;;;;;;;68.38;49.67;;;13.10;73.40;;;;;;4922389;28;94765;-45
2023/01/10 06:56:01;;;;;;;65.55;48.83;;;13.10;73.50;;;;;;4924450;28;95199;-51
2023/01/10 06:58:27;;;;;;;70.38;49.42;;;13.10;73.70;;;;;;4920988;28;95989;-50
2023/01/10 07:00:53;;;;;;;67.13;49.42;;;13.10;73.50;;;;;;4929479;28;94622;-47
2023/01/10 07:03:19;;;;;;;65.20;49.22;;;13.10;73.60;;;;;;4908808;28;97937;-48
2023/01/10 07:05:45;;;;;;;64.53;49.35;;;13.00;73.30;;;;;;4924007;28;98474;-49
2023/01/10 07:08:11;;;;;;;64.93;49.03;;;13.00;73.50;;;;;;4920530;28;96185;-44
2023/01/10 07:10:40;;;;;;;67.47;49.38;;;13.10;73.50;;;;;;4915691;28;96571;-51
2023/01/10 07:13:06;;;;;;;71.00;49.42;;;13.00;73.40;;;;;;4934840;28;95815;-46
2023/01/10 07:15:31;;;;;;;67.43;49.38;;;13.00;73.50;;;;;;4929452;28;98893;-51
2023/01/10 07:17:57;;;;;;;67.28;49.42;;;13.00;73.50;;;;;;4921156;28;95121;-51
2023/01/10 07:20:23;;;;;;;63.58;49.08;;;13.00;73.60;;;;;;4922911;28;97476;-48
2023/01/10 07:22:57;;;;;;;66.53;49.28;;;13.00;73.40;;;;;;4920866;28;95135;-46
2023/01/10 07:25:24;;;;;;;66.00;49.10;;;13.00;73.40;;;;;;4929075;28;98765;-51
2023/01/10 07:27:50;;;;;;;67.93;49.20;;;13.00;73.40;;;;;;4915280;28;95854;-48
2023/01/10 07:30:16;;;;;;;68.35;49.60;;;13.00;73.50;;;;;;4919887;28;97681;-46
2023/01/10 07:32:41;;;;;;;66.03;48.88;;;13.00;73.40;;;;;;4921874;28;96046;-46
2023/01/10 07:35:07;;;;;;;67.45;49.45;;;13.00;73.40;;;;;;4924120;28;98786;-52
2023/01/10 07:37:33;;;;;;;67.05;48.90;;;13.00;73.30;;;;;;4921589;28;97639;-50
2023/01/10 07:39:59;;;;;;;64.68;49.63;;;13.00;73.40;;;;;;4919865;28;96194;-49
2023/01/10 07:42:24;;;;;;;66.53;49.45;;;13.00;73.40;;;;;;4925231;28;97267;-46
2023/01/10 07:44:50;;;;;;;67.75;49.40;;;13.00;73.30;;;;;;4908794;28;95157;-48
2023/01/10 07:47:16;;;;;;;68.10;49.42;;;13.00;73.50;;;;;;4924606;28;96184;-50
2023/01/10 07:49:41;;;;;;;65.25;48.97;;;13.00;73.60;;;;;;4920230;28;96378;-47
2023/01/10 07:52:08;;;;;;;63.60;49.00;;;12.90;73.30;;;;;;4919962;28;95141;-51
2023/01/10 07:54:34;;;;;;;65.72;49.53;;;13.00;73.40;;;;;;4917721;28;96891;-47
2023/01/10 07:57:00;;;;;;;66.35;49.70;;;13.00;73.30;;;;;;4936447;28;96136;-49
2023/01/10 07:59:26;;;;;;;68.60;49.63;;;13.00;73.30;;;;;;4930699;28;95085;-47
2023/01/10 08:01:52;;;;;;;65.28;49.00;;;12.90;73.30;;;;;;4921118;28;98458;-49
2023/01/10 08:04:18;;;;;;;67.43;49.33;;;13.00;73.20;;;;;;4911937;28;94636;-49
2023/01/10 08:06:44;;;;;;;66.13;49.22;;;13.00;73.30;;;;;;4918552;28;94799;-47
2023/01/10 08:09:10;;;;;;;66.70;49.10;;;13.00;73.10;;;;;;4925047;28;96152;-47
2023/01/10 08:11:35;;;;;;;68.25;49.42;;;13.00;73.10;;;;;;4914628;28;96079;-51
2023/01/10 08:14:01;;;;;;;67.25;49.78;;;13.00;73.20;;;;;;4916082;28;93701;-49
2023/01/10 08:16:26;;;;;;;64.50;49.50;;;13.00;73.10;;;;;;4931243;28;94962;-49
2023/01/10 08:18:52;;;;;;;68.07;49.47;;;13.00;73.10;;;;;;4917376;28;96237;-51
2023/01/10 08:21:18;;;;;;;64.47;49.13;;;13.00;73.10;;;;;;4914480;28;96916;-51
2023/01/10 08:23:43;;;;;;;64.63;49.55;;;13.00;73.10;;;;;;4922144;28;98063;-47
2023/01/10 08:26:09;;;;;;;64.35;49.28;;;13.00;73.20;;;;;;4921525;28;95194;-46
2023/01/10 08:28:35;;;;;;;65.65;49.55;;;12.90;73.00;;;;;;4921059;28;96762;-49
2023/01/10 08:31:07;;;;;;;65.35;49.15;;;13.00;73.20;;;;;;4915155;28;100163;-49
2023/01/10 08:33:33;;;;;;;64.72;48.78;;;13.00;73.00;;;;;;4921009;28;95182;-51
2023/01/10 08:35:59;;;;;;;67.65;50.00;;;13.00;73.10;;;;;;4913045;28;97770;-51
2023/01/10 08:38:25;;;;;;;63.80;48.80;;;13.00;72.90;;;;;;4917777;28;98903;-46
2023/01/10 08:40:50;;;;;;;64.05;49.45;;;13.00;72.90;;;;;;4918277;28;97711;-50
2023/01/10 08:43:16;;;;;;;64.32;49.05;;;13.00;73.00;;;;;;4928311;28;95267;-49
2023/01/10 08:45:42;;;;;;;67.78;48.83;;;13.00;72.80;;;;;;4923430;28;97643;-50
2023/01/10 08:48:09;;;;;;;65.38;49.20;;;13.00;72.90;;;;;;4917450;28;96290;-52
2023/01/10 08:50:35;;;;;;;65.32;49.13;;;13.00;72.80;;;;;;4932179;28;95614;-46
2023/01/10 08:53:00;;;;;;;65.30;49.47;;;13.00;73.00;;;;;;4930751;28;95020;-51
2023/01/10 08:55:27;;;;;;;65.75;48.85;;;13.00;72.90;;;;;;4916090;28;95295;-49
2023/01/10 08:57:53;;;;;;;64.22;48.92;;;13.00;72.80;;;;;;4917867;28;95018;-47
2023/01/10 09:00:20;;;;;;;64.60;49.22;;;13.00;72.80;;;;;;4923068;28;95030;-48
2023/01/10 09:02:45;;;;;;;66.47;49.20;;;13.00;72.70;;;;;;4917630;28;94027;-49
2023/01/10 09:05:11;;;;;;;64.05;48.90;;;13.00;72.70;;;;;;4929983;28;97821;-48
2023/01/10 09:07:40;;;;;;;65.93;49.08;;;13.00;72.70;;;;;;4909036;28;96986;-46
2023/01/10 09:10:06;;;;;;;65.18;49.13;;;13.00;72.60;;;;;;4927558;28;95791;-50
2023/01/10 09:15:16;;;;;;;65.50;48.88;;;13.00;72.50;;;;;;4906169;28;94993;-49
2023/01/10 09:17:41;;;;;;;66.18;49.45;;;13.00;72.50;;;;;;4919367;28;95179;-47
2023/01/10 09:20:09;;;;;;;66.03;49.05;;;13.00;72.50;;;;;;4927980;28;94770;-50
2023/01/10 09:22:36;;;;;;;63.58;48.47;;;13.00;72.40;;;;;;4919261;28;95348;-49
2023/01/10 09:25:02;;;;;;;63.58;49.00;;;13.00;72.40;;;;;;4919059;28;96816;-49
2023/01/10 09:27:28;;;;;;;64.47;48.97;;;13.00;72.40;;;;;;4921847;28;98464;-48
2023/01/10 09:29:53;;;;;;;64.53;48.88;;;13.00;72.50;;;;;;4917292;28;94839;-48
2023/01/10 09:32:19;;;;;;;65.53;49.67;;;13.00;72.40;;;;;;4919437;28;99380;-49
2023/01/10 09:34:45;;;;;;;64.78;49.50;;;13.10;72.30;;;;;;4914897;28;96244;-52
2023/01/10 09:37:10;;;;;;;64.32;48.58;;;13.00;72.20;;;;;;4926133;28;98803;-50
2023/01/10 09:39:36;;;;;;;66.90;49.10;;;13.00;72.20;;;;;;4913209;28;95404;-49
2023/01/10 09:42:07;;;;;;;63.40;49.17;;;13.00;72.20;;;;;;4918820;28;95526;-52
2023/01/10 09:45:23;;;;;;;67.25;49.47;;;13.00;72.10;;;;;;4927891;28;95235;-47
2023/01/10 09:47:49;;;;;;;65.60;48.75;;;13.10;72.10;;;;;;4896334;28;96924;-51
2023/01/10 09:50:54;;;;;;;67.30;49.08;;;13.10;72.10;;;;;;4892859;28;95089;-51
2023/01/10 09:53:23;;;;;;;64.32;49.60;;;13.10;72.10;;;;;;4902650;28;98907;-48
2023/01/10 09:55:58;;;;;;;65.65;49.35;;;13.10;72.00;;;;;;4899531;28;95800;-47
2023/01/10 09:58:29;;;;;;;66.80;48.85;;;13.10;72.00;;;;;;4905655;28;99638;-50
2023/01/10 10:00:58;;;;;;;66.85;49.55;;;13.10;72.10;;;;;;4922196;28;98211;-48
2023/01/10 10:03:38;;;;;;;64.90;49.10;;;13.10;72.10;;;;;;4926544;28;94260;-49
2023/01/10 10:06:04;;;;;;;63.83;49.10;;;13.10;72.00;;;;;;4922801;28;97726;-50
2023/01/10 10:08:30;;;;;;;66.78;49.35;;;13.10;72.00;;;;;;4917575;28;97846;-52
2023/01/10 10:11:25;;;;;;;64.45;49.10;;;13.10;71.90;;;;;;4926174;28;97359;-48
2023/01/10 10:14:06;;;;;;;66.88;49.00;;;13.10;71.80;;;;;;4920216;28;96325;-48
2023/01/10 10:16:41;;;;;;;64.03;48.97;;;13.10;71.90;;;;;;4922796;28;95031;-52
2023/01/10 10:19:45;;;;;;;64.18;48.92;;;13.10;71.90;;;;;;4921729;28;94602;-50
2023/01/10 10:22:32;;;;;;;67.68;49.33;;;13.20;71.90;;;;;;4923627;28;94558;-47
2023/01/10 10:25:11;;;;;;;65.10;49.38;;;13.10;71.80;;;;;;4927247;28;94677;-52
2023/01/10 10:28:03;;;;;;;65.10;48.80;;;13.10;71.80;;;;;;4921720;28;96748;-51
2023/01/10 10:30:32;;;;;;;65.07;49.25;;;13.10;71.80;;;;;;4905018;28;97332;-49
2023/01/10 10:33:51;;;;;;;66.20;49.08;;;13.10;71.80;;;;;;4917933;28;97035;-50
2023/01/10 10:36:38;;;;;;;64.28;49.08;;;13.10;71.80;;;;;;4905188;28;95399;-52
2023/01/10 10:39:05;;;;;;;64.03;48.75;;;13.10;71.80;;;;;;4899505;28;98417;-49
2023/01/10 10:41:41;;;;;;;65.95;48.42;;;13.10;71.70;;;;;;4897684;28;95303;-52
2023/01/10 10:44:29;;;;;;;63.33;48.45;;;13.10;71.70;;;;;;4901318;28;96519;-52
2023/01/10 10:46:58;;;;;;;64.57;49.00;;;13.10;71.80;;;;;;4908951;28;94582;-47
2023/01/10 10:49:24;;;;;;;64.30;49.40;;;13.10;71.80;;;;;;4897673;28;95500;-46
2023/01/10 10:51:51;;;;;;;65.28;49.10;;;13.10;71.80;;;;;;4924205;28;95570;-51
2023/01/10 10:54:17;;;;;;;64.38;49.15;;;13.10;71.70;;;;;;4927161;28;96118;-50
2023/01/10 10:56:44;;;;;;;64.28;49.13;;;13.10;71.70;;;;;;4931265;28;95520;-51
2023/01/10 10:59:16;;;;;;;65.97;49.60;;;13.20;71.70;;;;;;4931346;28;95059;-48
2023/01/10 11:01:45;;;;;;;64.55;48.70;;;13.20;71.60;;;;;;4924469;28;96920;-49
2023/01/10 11:04:14;;;;;;;64.18;49.10;;;13.20;71.50;;;;;;4922080;28;96542;-52
2023/01/10 11:06:47;;;;;;;64.47;49.15;;;13.20;71.60;;;;;;4924366;28;95218;-48
2023/01/10 11:12:18;;;;;;;63.45;48.95;;;13.20;71.60;;;;;;4905892;28;94646;-51
2023/01/10 11:14:47;;;;;;;64.35;49.00;;;13.20;71.60;;;;;;4924661;28;94666;-51
2023/01/10 11:17:17;;;;;;;65.85;49.38;;;13.20;71.60;;;;;;4927668;28;95633;-49
2023/01/10 11:20:04;;;;;;;64.90;48.92;;;13.20;71.60;;;;;;4922510;28;97666;-51
2023/01/10 11:22:39;;;;;;;67.03;48.78;;;13.20;71.60;;;;;;4916883;28;95773;-50
2023/01/10 11:25:14;;;;;;;67.93;49.30;;;13.20;71.60;;;;;;4920475;28;95315;-48
2023/01/10 11:27:53;;;;;;;65.90;49.22;;;13.20;71.70;;;;;;4919244;28;95487;-51
2023/01/10 11:30:30;;;;;;;63.08;49.05;;;13.20;71.60;;;;;;4924219;28;96056;-45
2023/01/10 11:33:05;;;;;;;65.18;48.83;;;13.10;71.70;;;;;;4931639;28;95993;-47
2023/01/10 11:35:31;;;;;;;66.45;49.83;;;13.10;71.90;;;;;;4921661;28;97410;-51
2023/01/10 11:38:00;;;;;;;65.72;49.10;;;13.10;71.90;;;;;;4925471;28;93761;-53
2023/01/10 11:40:28;;;;;;;63.83;48.80;;;13.10;71.90;;;;;;4926124;28;95476;-53
2023/01/10 11:42:56;;;;;;;65.03;49.17;;;13.10;72.00;;;;;;4936286;28;96935;-48
2023/01/10 11:45:28;;;;;;;66.43;48.88;;;13.10;71.90;;;;;;4925215;28;95974;-47
2023/01/10 11:48:06;;;;;;;65.78;49.22;;;13.10;72.00;;;;;;4921374;28;97217;-53
2023/01/10 11:50:35;;;;;;;65.40;49.33;;;13.20;72.10;;;;;;4914366;28;97401;-52
2023/01/10 11:53:01;;;;;;;70.43;49.45;;;13.10;71.80;;;;;;4928443;28;94824;-49
2023/01/10 11:55:29;;;;;;;67.38;49.67;;;13.20;72.00;;;;;;4931636;28;95197;-51
2023/01/10 11:58:12;;;;;;;63.33;48.55;;;13.20;71.90;;;;;;4922681;28;95247;-51
2023/01/10 12:00:47;;;;;;;66.28;49.38;;;13.10;72.00;;;;;;4917601;28;95210;-46
2023/01/10 12:03:18;;;;;;;64.50;49.10;;;13.20;72.00;;;;;;4919839;28;96356;-52
2023/01/10 12:05:52;;;;;;;67.15;49.10;;;13.20;72.00;;;;;;4917912;28;95538;-50
2023/01/10 12:08:44;;;;;;;66.07;48.60;;;13.20;72.00;;;;;;4924165;28;94842;-52
2023/01/10 12:11:12;;;;;;;66.10;49.83;;;13.10;72.10;;;;;;4920283;28;96111;-50
2023/01/10 12:13:47;;;;;;;63.15;48.67;;;13.20;72.20;;;;;;4927534;28;96273;-47
2023/01/10 12:16:22;;;;;;;64.82;49.13;;;13.10;72.00;;;;;;4920211;28;95981;-46
2023/01/10 12:18:54;;;;;;;64.28;49.35;;;13.10;72.00;;;;;;4913398;28;96263;-47
2023/01/10 12:21:38;;;;;;;63.72;48.80;;;13.20;72.10;;;;;;4921421;28;95482;-46
2023/01/10 12:24:31;;;;;;;68.13;49.42;;;13.10;72.00;;;;;;4924814;28;99201;-46
2023/01/10 12:27:00;;;;;;;63.35;48.95;;;13.20;72.10;;;;;;4926225;28;94795;-48
2023/01/10 12:29:54;;;;;;;66.53;49.28;;;13.20;72.10;;;;;;4924865;28;94453;-52
2023/01/10 12:32:25;;;;;;;65.15;49.17;;;13.10;72.00;;;;;;4918483;28;98466;-51
2023/01/10 12:35:09;;;;;;;66.95;49.15;;;13.10;72.10;;;;;;4917727;28;94994;-51
2023/01/10 12:37:44;;;;;;;65.35;49.47;;;13.20;72.10;;;;;;4925808;28;99151;-51
2023/01/10 12:40:24;;;;;;;64.50;49.20;;;13.10;72.10;;;;;;4922941;28;95176;-50
2023/01/10 12:45:55;;;;;;;67.78;49.40;;;13.10;72.40;;;;;;4919833;28;94941;-51
2023/01/10 12:48:32;;;;;;;69.13;49.13;;;13.10;72.40;;;;;;4914659;28;99257;-48
2023/01/10 12:51:06;;;;;;;67.03;49.05;;;13.10;72.40;;;;;;4929360;28;96785;-50
2023/01/10 12:53:40;;;;;;;69.35;49.38;;;13.10;72.60;;;;;;4928034;28;97925;-50
2023/01/10 12:56:12;;;;;;;66.00;48.95;;;13.10;72.40;;;;;;4923865;28;96810;-48
2023/01/10 12:58:41;;;;;;;65.55;49.28;;;13.10;72.50;;;;;;4914112;28;96704;-53
2023/01/10 13:01:12;;;;;;;64.72;48.97;;;13.10;72.50;;;;;;4922897;28;95405;-51